createdAt,value
2023-03-26T00:01:39.438Z,6.42
2023-03-26T00:04:06.627Z,6.41
2023-03-26T00:06:37.419Z,6.39
2023-03-26T00:09:04.329Z,6.43
2023-03-26T00:11:30.950Z,6.35
2023-03-26T00:13:57.779Z,6.38
2023-03-26T00:16:29.079Z,6.40
2023-03-26T00:18:55.882Z,6.42
2023-03-26T00:21:29.346Z,6.43
2023-03-26T00:24:09.820Z,6.44
2023-03-26T00:26:37.663Z,6.36
2023-03-26T00:29:04.507Z,6.29
2023-03-26T00:31:31.123Z,6.32
2023-03-26T00:33:57.832Z,6.35
2023-03-26T00:36:25.751Z,6.27
2023-03-26T00:38:53.600Z,6.32
2023-03-26T00:41:25.514Z,6.25
2023-03-26T00:43:56.677Z,6.26
2023-03-26T00:46:24.344Z,6.11
2023-03-26T00:48:50.910Z,6.12
2023-03-26T00:51:18.011Z,6.10
2023-03-26T00:53:45.794Z,6.07
2023-03-26T00:56:12.490Z,6.00
2023-03-26T00:58:39.125Z,6.07
2023-03-26T01:01:08.768Z,6.26
2023-03-26T01:03:36.314Z,6.35
2023-03-26T01:06:08.144Z,6.50
2023-03-26T01:08:38.391Z,6.52
2023-03-26T01:11:13.942Z,6.49
2023-03-26T01:13:49.896Z,6.41
2023-03-26T01:16:29.802Z,6.39
2023-03-26T01:18:58.780Z,6.42
2023-03-26T01:21:30.080Z,6.33
2023-03-26T01:24:05.114Z,6.36
2023-03-26T01:26:43.356Z,6.33
2023-03-26T01:29:16.364Z,6.51
2023-03-26T01:32:12.142Z,6.56
2023-03-26T01:34:52.269Z,6.57
2023-03-26T01:37:46.705Z,6.48
2023-03-26T01:40:28.933Z,6.53
2023-03-26T01:43:09.984Z,6.44
2023-03-26T01:45:37.638Z,6.42
2023-03-26T01:48:04.513Z,6.42
2023-03-26T01:50:31.286Z,6.41
2023-03-26T01:52:58.055Z,6.45
2023-03-26T01:55:26.970Z,6.45
2023-03-26T01:57:59.217Z,6.45
2023-03-26T02:00:31.943Z,6.47
2023-03-26T02:03:27.921Z,6.43
2023-03-26T02:06:17.479Z,6.44
2023-03-26T02:09:11.688Z,6.44
2023-03-26T02:11:38.370Z,6.52
2023-03-26T02:14:05.916Z,6.50
2023-03-26T02:16:32.491Z,6.55
2023-03-26T02:18:59.255Z,6.45
2023-03-26T02:21:26.354Z,6.45
2023-03-26T02:24:04.268Z,6.50
2023-03-26T02:26:31.727Z,6.54
2023-03-26T02:28:58.469Z,6.53
2023-03-26T02:31:28.006Z,6.51
2023-03-26T02:33:55.487Z,6.48
2023-03-26T02:36:27.519Z,6.50
2023-03-26T02:38:54.843Z,6.43
2023-03-26T02:41:21.520Z,6.47
2023-03-26T02:43:48.058Z,6.47
2023-03-26T02:46:14.566Z,6.56
2023-03-26T02:48:41.564Z,6.48
2023-03-26T02:51:08.094Z,6.40
2023-03-26T02:53:34.641Z,6.48
2023-03-26T02:56:01.113Z,6.44
2023-03-26T02:58:30.151Z,6.43
2023-03-26T03:00:56.765Z,6.47
2023-03-26T03:03:26.851Z,6.44
2023-03-26T03:05:54.382Z,6.46
2023-03-26T03:08:21.943Z,6.39
2023-03-26T03:10:57.812Z,6.30
2023-03-26T03:13:24.300Z,6.11
2023-03-26T03:15:50.860Z,6.07
2023-03-26T03:18:17.421Z,6.21
2023-03-26T03:20:44.603Z,6.06
2023-03-26T03:23:11.396Z,5.93
2023-03-26T03:25:38.339Z,5.85
2023-03-26T03:28:04.966Z,5.82
2023-03-26T03:30:31.537Z,5.73
2023-03-26T03:32:58.523Z,5.60
2023-03-26T03:35:25.785Z,5.51
2023-03-26T03:37:52.257Z,5.55
2023-03-26T03:40:19.701Z,5.57
2023-03-26T03:42:46.793Z,5.63
2023-03-26T03:45:13.381Z,5.64
2023-03-26T03:47:39.944Z,5.61
2023-03-26T03:50:07.235Z,5.61
2023-03-26T03:52:33.719Z,5.53
2023-03-26T03:55:02.769Z,5.58
2023-03-26T03:57:29.339Z,5.47
2023-03-26T03:59:58.973Z,5.45
2023-03-26T04:02:34.976Z,5.31
2023-03-26T04:05:02.524Z,5.28
2023-03-26T04:07:31.142Z,5.25
2023-03-26T04:10:00.183Z,5.26
2023-03-26T04:12:30.025Z,5.21
2023-03-26T04:14:56.605Z,5.22
2023-03-26T04:17:23.343Z,5.17
2023-03-26T04:19:50.473Z,5.10
2023-03-26T04:22:18.365Z,4.99
2023-03-26T04:24:45.322Z,4.92
2023-03-26T04:27:14.214Z,4.97
2023-03-26T04:29:42.906Z,4.90
2023-03-26T04:32:29.788Z,4.79
2023-03-26T04:35:00.313Z,4.79
2023-03-26T04:37:32.281Z,4.72
2023-03-26T04:39:59.206Z,4.68
2023-03-26T04:42:25.805Z,4.68
2023-03-26T04:44:52.401Z,4.68
2023-03-26T04:47:18.946Z,4.68
2023-03-26T04:49:46.135Z,4.62
2023-03-26T04:52:12.698Z,4.65
2023-03-26T04:54:39.488Z,4.63
2023-03-26T04:57:29.682Z,4.69
2023-03-26T04:59:56.304Z,4.70
2023-03-26T05:02:23.045Z,4.69
2023-03-26T05:04:50.811Z,4.62
2023-03-26T05:07:19.456Z,4.63
2023-03-26T05:09:46.089Z,4.59
2023-03-26T05:12:12.677Z,4.60
2023-03-26T05:14:39.139Z,4.57
2023-03-26T05:17:10.849Z,4.63
2023-03-26T05:19:38.961Z,4.52
2023-03-26T05:22:05.405Z,4.56
2023-03-26T05:24:31.894Z,4.51
2023-03-26T05:26:58.374Z,4.59
2023-03-26T05:29:24.944Z,4.62
2023-03-26T05:31:51.659Z,4.62
2023-03-26T05:34:19.624Z,4.58
2023-03-26T05:36:46.172Z,4.61
2023-03-26T05:39:14.218Z,4.61
2023-03-26T05:41:40.862Z,4.62
2023-03-26T05:44:07.407Z,4.68
2023-03-26T05:46:33.959Z,4.68
2023-03-26T05:49:00.857Z,4.58
2023-03-26T05:51:27.316Z,4.68
2023-03-26T05:53:53.777Z,4.73
2023-03-26T05:56:20.535Z,4.79
2023-03-26T05:58:47.512Z,4.96
2023-03-26T06:01:17.128Z,5.02
2023-03-26T06:03:47.466Z,5.06
2023-03-26T06:06:17.765Z,5.17
2023-03-26T06:08:48.997Z,5.08
2023-03-26T06:11:29.623Z,5.19
2023-03-26T06:13:56.126Z,5.34
2023-03-26T06:16:26.551Z,5.43
2023-03-26T06:18:56.594Z,5.60
2023-03-26T06:21:24.943Z,5.60
2023-03-26T06:23:51.763Z,5.62
2023-03-26T06:26:18.410Z,5.61
2023-03-26T06:28:44.923Z,5.62
2023-03-26T06:31:11.922Z,5.61
2023-03-26T06:33:38.603Z,5.67
2023-03-26T06:36:05.500Z,5.64
2023-03-26T06:38:31.993Z,5.75
2023-03-26T06:41:03.309Z,5.64
2023-03-26T06:43:33.572Z,5.63
2023-03-26T06:46:01.364Z,5.71
2023-03-26T06:48:27.879Z,5.65
2023-03-26T06:50:54.796Z,5.75
2023-03-26T06:53:21.430Z,5.63
2023-03-26T06:55:47.913Z,5.71
2023-03-26T06:58:14.496Z,5.82
2023-03-26T07:00:42.129Z,5.75
2023-03-26T07:03:08.744Z,5.76
2023-03-26T07:05:35.380Z,5.80
2023-03-26T07:08:02.881Z,6.01
2023-03-26T07:10:29.361Z,6.21
2023-03-26T07:12:56.416Z,6.16
2023-03-26T07:15:23.992Z,6.22
2023-03-26T07:17:50.589Z,6.38
2023-03-26T07:20:17.192Z,6.24
2023-03-26T07:22:43.857Z,6.18
2023-03-26T07:25:11.210Z,6.11
2023-03-26T07:27:37.753Z,6.12
2023-03-26T07:30:22.713Z,6.11
2023-03-26T07:32:59.563Z,6.13
2023-03-26T07:35:57.068Z,6.20
2023-03-26T07:38:46.305Z,6.35
2023-03-26T07:41:17.967Z,6.42
2023-03-26T07:44:09.029Z,6.60
2023-03-26T07:46:36.938Z,6.55
2023-03-26T07:49:05.185Z,6.61
2023-03-26T07:51:32.516Z,6.65
2023-03-26T07:54:00.524Z,6.67
2023-03-26T07:56:34.768Z,6.62
2023-03-26T07:59:34.582Z,6.83
2023-03-26T08:02:19.602Z,7.12
2023-03-26T08:04:55.447Z,6.98
2023-03-26T08:08:05.004Z,6.99
2023-03-26T08:10:45.908Z,7.16
2023-03-26T08:13:17.694Z,7.40
2023-03-26T08:16:07.972Z,7.48
2023-03-26T08:18:44.736Z,7.53
2023-03-26T08:21:14.134Z,7.77
2023-03-26T08:23:59.098Z,7.90
2023-03-26T08:26:31.434Z,7.85
2023-03-26T08:29:10.014Z,7.85
2023-03-26T08:31:38.996Z,7.64
2023-03-26T08:34:06.147Z,7.66
2023-03-26T08:36:32.646Z,7.69
2023-03-26T08:38:59.536Z,7.52
2023-03-26T08:41:35.272Z,7.73
2023-03-26T08:44:10.898Z,7.66
2023-03-26T08:46:57.302Z,7.80
2023-03-26T08:49:35.935Z,7.58
2023-03-26T08:52:30.774Z,7.53
2023-03-26T08:55:09.140Z,7.47
2023-03-26T08:57:44.654Z,7.58
2023-03-26T09:00:38.102Z,7.86
2023-03-26T09:03:08.715Z,7.86
2023-03-26T09:05:44.132Z,7.90
2023-03-26T09:08:20.652Z,8.09
2023-03-26T09:11:06.329Z,7.96
2023-03-26T09:13:55.466Z,8.11
2023-03-26T09:16:33.603Z,8.16
2023-03-26T09:19:24.809Z,7.92
2023-03-26T09:22:16.641Z,7.87
2023-03-26T09:25:13.484Z,7.95
2023-03-26T09:28:24.821Z,8.19
2023-03-26T09:31:06.380Z,8.18
2023-03-26T09:33:43.564Z,8.17
2023-03-26T09:36:22.741Z,8.23
2023-03-26T09:38:53.662Z,8.18
2023-03-26T09:41:35.722Z,8.20
2023-03-26T09:44:27.703Z,7.84
2023-03-26T09:47:19.750Z,7.93
2023-03-26T09:49:54.741Z,8.01
2023-03-26T09:52:40.378Z,8.06
2023-03-26T09:55:26.027Z,8.13
2023-03-26T09:58:11.446Z,8.04
2023-03-26T10:01:00.904Z,7.98
2023-03-26T10:03:38.114Z,8.17
2023-03-26T10:06:49.673Z,8.10
2023-03-26T10:09:30.340Z,7.90
2023-03-26T10:12:33.888Z,7.85
2023-03-26T10:15:19.040Z,7.89
2023-03-26T10:18:27.549Z,7.91
2023-03-26T10:21:04.628Z,8.02
2023-03-26T10:23:46.237Z,8.04
2023-03-26T10:27:09.007Z,7.99
2023-03-26T10:29:43.028Z,7.89
2023-03-26T10:32:31.330Z,7.75
2023-03-26T10:35:45.651Z,7.64
2023-03-26T10:38:30.743Z,7.60
2023-03-26T10:41:08.833Z,7.56
2023-03-26T10:44:07.890Z,7.49
2023-03-26T10:46:51.289Z,7.42
2023-03-26T10:49:49.041Z,7.25
2023-03-26T10:52:21.966Z,7.02
2023-03-26T10:55:12.108Z,7.00
2023-03-26T10:57:53.377Z,7.02
2023-03-26T11:00:28.972Z,6.84
2023-03-26T11:03:29.553Z,6.70
2023-03-26T11:06:23.677Z,6.73
2023-03-26T11:09:01.711Z,6.81
2023-03-26T11:12:25.764Z,6.84
2023-03-26T11:15:03.465Z,6.72
2023-03-26T11:17:43.811Z,6.77
2023-03-26T11:20:44.498Z,6.66
2023-03-26T11:23:29.598Z,6.72
2023-03-26T11:26:04.773Z,6.89
2023-03-26T11:28:40.357Z,7.21
2023-03-26T11:31:19.127Z,7.05
2023-03-26T11:33:48.048Z,6.92
2023-03-26T11:36:27.081Z,6.87
2023-03-26T11:38:55.041Z,6.77
2023-03-26T11:41:26.136Z,6.69
2023-03-26T11:43:55.908Z,6.77
2023-03-26T11:46:23.329Z,6.80
2023-03-26T11:48:52.741Z,6.86
2023-03-26T11:51:39.776Z,6.96
2023-03-26T11:54:07.804Z,7.03
2023-03-26T11:56:35.990Z,7.27
2023-03-26T11:59:14.774Z,7.23
2023-03-26T12:01:52.038Z,7.14
2023-03-26T12:04:20.345Z,7.15
2023-03-26T12:07:17.030Z,7.10
2023-03-26T12:09:56.430Z,7.28
2023-03-26T12:12:34.326Z,7.25
2023-03-26T12:15:01.048Z,7.30
2023-03-26T12:17:31.850Z,7.47
2023-03-26T12:19:58.584Z,8.31
2023-03-26T12:22:36.440Z,7.88
2023-03-26T12:25:12.878Z,7.45
2023-03-26T12:27:43.114Z,7.59
2023-03-26T12:30:31.054Z,8.03
2023-03-26T12:33:00.896Z,8.28
2023-03-26T12:35:29.189Z,8.53
2023-03-26T12:37:57.968Z,9.56
2023-03-26T12:40:32.478Z,9.60
2023-03-26T12:44:55.921Z,8.92
2023-03-26T12:46:20.662Z,8.41
2023-03-26T12:48:37.357Z,8.37
2023-03-26T12:51:17.046Z,8.55
2023-03-26T12:53:50.358Z,8.79
2023-03-26T12:56:21.866Z,8.77
2023-03-26T12:59:00.415Z,8.95
2023-03-26T13:01:28.651Z,8.83
2023-03-26T13:04:10.081Z,8.73
2023-03-26T13:07:00.556Z,8.75
2023-03-26T13:10:04.328Z,8.85
2023-03-26T13:12:49.622Z,9.19
2023-03-26T13:16:04.181Z,8.96
2023-03-26T13:19:24.529Z,9.21
2023-03-26T13:23:06.759Z,9.40
2023-03-26T13:26:28.405Z,9.66
2023-03-26T13:29:23.696Z,9.62
2023-03-26T13:31:58.047Z,9.84
2023-03-26T13:34:40.431Z,9.59
2023-03-26T13:37:31.251Z,9.66
2023-03-26T13:40:19.836Z,9.70
2023-03-26T13:43:01.903Z,9.71
2023-03-26T13:45:47.693Z,9.86
2023-03-26T13:48:18.404Z,10.62
2023-03-26T13:50:52.389Z,10.94
2023-03-26T13:53:22.940Z,10.43
2023-03-26T13:55:52.576Z,10.42
2023-03-26T13:58:34.764Z,10.66
2023-03-26T14:01:10.103Z,10.27
2023-03-26T14:04:06.040Z,10.79
2023-03-26T14:06:54.029Z,11.03
2023-03-26T14:09:45.622Z,12.03
2023-03-26T14:12:21.337Z,11.21
2023-03-26T14:15:09.326Z,11.22
2023-03-26T14:17:38.924Z,10.96
2023-03-26T14:20:17.618Z,11.12
2023-03-26T14:22:58.997Z,11.10
2023-03-26T14:25:50.745Z,10.75
2023-03-26T14:28:41.449Z,11.34
2023-03-26T14:31:41.978Z,10.70
2023-03-26T14:34:19.725Z,10.40
2023-03-26T14:36:53.714Z,10.65
2023-03-26T14:39:28.845Z,10.76
2023-03-26T14:42:02.759Z,10.85
2023-03-26T14:44:48.510Z,11.32
2023-03-26T14:47:23.878Z,10.97
2023-03-26T14:50:31.536Z,11.05
2023-03-26T14:53:00.863Z,10.76
2023-03-26T14:55:49.904Z,10.69
2023-03-26T14:58:23.802Z,11.02
2023-03-26T15:01:11.857Z,10.64
2023-03-26T15:04:02.778Z,10.59
2023-03-26T15:07:12.762Z,10.99
2023-03-26T15:10:01.101Z,10.86
2023-03-26T15:12:43.304Z,10.49
2023-03-26T15:15:31.679Z,10.36
2023-03-26T15:18:16.563Z,10.33
2023-03-26T15:20:48.777Z,10.08
2023-03-26T15:23:39.304Z,9.93
2023-03-26T15:26:46.514Z,9.88
2023-03-26T15:29:22.001Z,9.57
2023-03-26T15:32:16.949Z,9.40
2023-03-26T15:34:51.364Z,9.37
2023-03-26T15:37:42.653Z,9.31
2023-03-26T15:40:09.220Z,9.19
2023-03-26T15:42:45.645Z,9.22
2023-03-26T15:45:18.001Z,9.38
2023-03-26T15:48:11.615Z,10.29
2023-03-26T15:51:00.097Z,10.38
2023-03-26T15:53:38.367Z,9.95
2023-03-26T15:56:20.573Z,9.74
2023-03-26T15:58:52.228Z,9.74
2023-03-26T16:01:33.774Z,9.91
2023-03-26T16:04:38.776Z,9.98
2023-03-26T16:07:29.601Z,10.13
2023-03-26T16:10:17.115Z,10.03
2023-03-26T16:12:47.285Z,10.12
2023-03-26T16:15:21.175Z,10.21
2023-03-26T16:18:06.781Z,10.28
2023-03-26T16:20:34.966Z,10.26
2023-03-26T16:23:04.624Z,10.26
2023-03-26T16:25:35.381Z,10.17
2023-03-26T16:28:10.792Z,10.18
2023-03-26T16:30:37.613Z,10.05
2023-03-26T16:33:15.593Z,9.98
2023-03-26T16:36:34.434Z,9.89
2023-03-26T16:39:07.485Z,9.66
2023-03-26T16:41:37.319Z,9.61
2023-03-26T16:44:26.535Z,9.68
2023-03-26T16:47:08.315Z,9.64
2023-03-26T16:50:08.644Z,9.62
2023-03-26T16:52:54.464Z,9.60
2023-03-26T16:55:43.300Z,9.58
2023-03-26T16:58:31.522Z,9.48
2023-03-26T17:01:00.698Z,9.44
2023-03-26T17:03:33.965Z,9.33
2023-03-26T17:06:29.667Z,9.31
2023-03-26T17:09:01.322Z,9.13
2023-03-26T17:11:39.981Z,8.98
2023-03-26T17:14:27.282Z,8.88
2023-03-26T17:17:02.768Z,8.85
2023-03-26T17:19:59.808Z,8.66
2023-03-26T17:22:40.989Z,8.68
2023-03-26T17:25:25.698Z,8.77
2023-03-26T17:27:52.148Z,8.77
2023-03-26T17:30:42.831Z,8.72
2023-03-26T17:33:14.436Z,8.69
2023-03-26T17:35:42.374Z,8.60
2023-03-26T17:38:28.709Z,8.57
2023-03-26T17:40:56.847Z,8.53
2023-03-26T17:43:46.339Z,8.39
2023-03-26T17:46:17.337Z,8.39
2023-03-26T17:48:46.909Z,8.34
2023-03-26T17:51:27.121Z,8.39
2023-03-26T17:53:53.557Z,8.27
2023-03-26T17:56:22.812Z,8.15
2023-03-26T17:58:50.758Z,8.06
2023-03-26T18:01:32.401Z,8.10
2023-03-26T18:04:00.643Z,8.23
2023-03-26T18:06:36.105Z,8.29
2023-03-26T18:09:37.839Z,8.29
2023-03-26T18:12:22.023Z,8.18
2023-03-26T18:15:17.949Z,8.07
2023-03-26T18:17:46.148Z,7.92
2023-03-26T18:20:26.947Z,8.02
2023-03-26T18:22:53.522Z,7.96
2023-03-26T18:25:32.270Z,7.98
2023-03-26T18:27:59.548Z,8.04
2023-03-26T18:30:26.330Z,7.91
2023-03-26T18:33:00.886Z,7.81
2023-03-26T18:35:36.201Z,7.76
2023-03-26T18:38:03.639Z,7.66
2023-03-26T18:40:34.031Z,7.59
2023-03-26T18:43:01.088Z,7.54
2023-03-26T18:45:29.598Z,7.48
2023-03-26T18:47:57.606Z,7.46
2023-03-26T18:50:36.562Z,7.35
2023-03-26T18:53:07.937Z,7.25
2023-03-26T18:55:39.222Z,7.24
2023-03-26T18:58:32.783Z,7.25
2023-03-26T19:01:00.893Z,7.15
2023-03-26T19:03:27.596Z,7.15
2023-03-26T19:05:55.730Z,7.11
2023-03-26T19:08:23.747Z,7.02
2023-03-26T19:10:51.013Z,6.97
2023-03-26T19:13:19.705Z,6.96
2023-03-26T19:15:46.833Z,6.88
2023-03-26T19:18:17.913Z,6.92
2023-03-26T19:21:01.051Z,6.98
2023-03-26T19:23:33.009Z,7.06
2023-03-26T19:26:01.697Z,6.86
2023-03-26T19:28:30.737Z,6.82
2023-03-26T19:31:27.136Z,6.96
2023-03-26T19:33:55.201Z,6.89
2023-03-26T19:36:24.457Z,6.76
2023-03-26T19:38:52.443Z,6.60
2023-03-26T19:41:24.840Z,6.55
2023-03-26T19:43:55.931Z,6.58
2023-03-26T19:46:22.910Z,6.58
2023-03-26T19:48:52.430Z,6.69
2023-03-26T19:51:21.506Z,6.67
2023-03-26T19:53:52.958Z,6.62
2023-03-26T19:56:20.821Z,6.68
2023-03-26T19:58:47.450Z,6.64
2023-03-26T20:01:18.755Z,6.71
2023-03-26T20:03:46.943Z,6.71
2023-03-26T20:06:17.846Z,6.63
2023-03-26T20:08:44.351Z,6.57
2023-03-26T20:11:36.526Z,6.49
2023-03-26T20:14:07.284Z,6.50
2023-03-26T20:16:34.176Z,6.45
2023-03-26T20:19:04.136Z,6.43
2023-03-26T20:21:41.252Z,6.43
2023-03-26T20:24:15.762Z,6.40
2023-03-26T20:26:42.815Z,6.43
2023-03-26T20:29:10.236Z,6.42
2023-03-26T20:31:37.560Z,6.34
2023-03-26T20:34:04.066Z,6.24
2023-03-26T20:36:33.020Z,6.20
2023-03-26T20:39:07.866Z,6.15
2023-03-26T20:41:34.607Z,6.14
2023-03-26T20:44:03.614Z,6.15
2023-03-26T20:46:31.374Z,6.12
2023-03-26T20:48:58.789Z,6.16
2023-03-26T20:51:27.979Z,6.10
2023-03-26T20:53:55.359Z,6.08
2023-03-26T20:56:21.968Z,6.12
2023-03-26T20:59:09.883Z,6.05
2023-03-26T21:01:38.186Z,6.00
2023-03-26T21:04:05.307Z,6.01
2023-03-26T21:06:31.935Z,6.06
2023-03-26T21:08:58.896Z,5.95
2023-03-26T21:11:50.287Z,5.92
2023-03-26T21:14:28.092Z,5.90
2023-03-26T21:16:54.847Z,5.88
2023-03-26T21:19:21.565Z,5.85
2023-03-26T21:21:50.852Z,5.79
2023-03-26T21:24:39.975Z,5.79
2023-03-26T21:27:26.629Z,5.75
2023-03-26T21:29:57.709Z,5.73
2023-03-26T21:32:24.468Z,5.66
2023-03-26T21:34:58.763Z,5.68
2023-03-26T21:37:26.525Z,5.67
2023-03-26T21:39:53.444Z,5.68
2023-03-26T21:42:20.152Z,5.66
2023-03-26T21:44:46.913Z,5.61
2023-03-26T21:47:14.028Z,5.64
2023-03-26T21:49:40.714Z,5.63
2023-03-26T21:52:09.498Z,5.69
2023-03-26T21:54:37.095Z,5.73
2023-03-26T21:57:21.750Z,5.70
2023-03-26T22:00:08.383Z,5.66
2023-03-26T22:03:12.004Z,5.68
2023-03-26T22:05:50.016Z,5.70
2023-03-26T22:08:29.790Z,5.69
2023-03-26T22:10:56.485Z,5.78
2023-03-26T22:13:23.089Z,5.84
2023-03-26T22:15:49.932Z,5.82
2023-03-26T22:18:16.825Z,5.82
2023-03-26T22:20:43.315Z,5.87
2023-03-26T22:23:09.815Z,5.78
2023-03-26T22:25:36.340Z,5.68
2023-03-26T22:28:04.261Z,5.66
2023-03-26T22:30:30.833Z,5.78
2023-03-26T22:32:58.780Z,5.68
2023-03-26T22:35:26.135Z,5.76
2023-03-26T22:37:52.763Z,5.63
2023-03-26T22:40:27.665Z,5.64
2023-03-26T22:42:54.133Z,5.66
2023-03-26T22:45:20.610Z,5.65
2023-03-26T22:47:47.259Z,5.59
2023-03-26T22:50:13.862Z,5.56
2023-03-26T22:52:41.028Z,5.53
2023-03-26T22:55:08.084Z,5.49
2023-03-26T22:57:34.624Z,5.51
2023-03-26T23:00:15.516Z,5.53
2023-03-26T23:02:44.813Z,5.55
2023-03-26T23:05:12.516Z,5.50
2023-03-26T23:07:40.258Z,5.55
2023-03-26T23:10:07.475Z,5.44
2023-03-26T23:12:33.936Z,5.31
2023-03-26T23:15:04.941Z,5.25
2023-03-26T23:17:35.390Z,5.12
2023-03-26T23:20:11.688Z,5.17
2023-03-26T23:22:38.215Z,5.13
2023-03-26T23:25:04.902Z,5.15
2023-03-26T23:27:32.877Z,5.13
2023-03-26T23:29:59.332Z,5.03
2023-03-26T23:32:25.934Z,5.08
2023-03-26T23:34:52.780Z,5.11
2023-03-26T23:37:23.085Z,5.08
2023-03-26T23:39:52.983Z,5.09
2023-03-26T23:42:29.303Z,5.08
2023-03-26T23:44:56.917Z,5.13
2023-03-26T23:47:23.728Z,5.16
2023-03-26T23:49:50.421Z,5.16
2023-03-26T23:52:16.976Z,5.10
2023-03-26T23:54:44.672Z,5.10
2023-03-26T23:57:11.368Z,5.14
2023-03-26T23:59:38.894Z,5.24
